createdAt,value
2022-12-03T00:02:15.423Z,101007.13
2022-12-03T00:04:46.330Z,101005.47
2022-12-03T00:07:17.353Z,101003.41
2022-12-03T00:09:48.009Z,101003.97
2022-12-03T00:12:18.248Z,100993.66
2022-12-03T00:14:48.928Z,101008.09
2022-12-03T00:17:19.807Z,101009.59
2022-12-03T00:19:50.306Z,101006.72
2022-12-03T00:22:20.809Z,101011.22
2022-12-03T00:24:51.832Z,101014.59
2022-12-03T00:27:23.034Z,101016.44
2022-12-03T00:29:56.182Z,101015.06
2022-12-03T00:32:27.040Z,101016.72
2022-12-03T00:34:57.895Z,101017.19
2022-12-03T00:37:29.363Z,101030.16
2022-12-03T00:40:00.429Z,101026.56
2022-12-03T00:42:30.649Z,101016.81
2022-12-03T00:45:01.833Z,101021.38
2022-12-03T00:47:32.974Z,101025.91
2022-12-03T00:50:03.871Z,101029.47
2022-12-03T00:52:34.955Z,101027.44
2022-12-03T00:55:05.469Z,101022.69
2022-12-03T00:57:38.458Z,101019.97
2022-12-03T01:00:09.877Z,101020.97
2022-12-03T01:02:41.872Z,101011.22
2022-12-03T01:05:12.244Z,101002.25
2022-12-03T01:07:43.211Z,101007.09
2022-12-03T01:10:16.113Z,101005.44
2022-12-03T01:12:47.520Z,101005.06
2022-12-03T01:15:17.870Z,101016.00
2022-12-03T01:17:48.261Z,101019.34
2022-12-03T01:20:18.856Z,101012.75
2022-12-03T01:22:49.357Z,101009.34
2022-12-03T01:25:19.755Z,101013.97
2022-12-03T01:27:50.159Z,101010.25
2022-12-03T01:30:20.799Z,101007.16
2022-12-03T01:32:51.173Z,101009.06
2022-12-03T01:35:21.627Z,100994.19
2022-12-03T01:37:52.499Z,100988.63
2022-12-03T01:40:23.820Z,100994.59
2022-12-03T01:42:55.556Z,100975.63
2022-12-03T01:45:26.226Z,100974.91
2022-12-03T01:47:56.740Z,100978.25
2022-12-03T01:50:34.874Z,100975.09
2022-12-03T01:53:05.926Z,100972.56
2022-12-03T01:55:36.650Z,100985.97
2022-12-03T01:58:07.305Z,100977.13
2022-12-03T02:00:37.997Z,100974.50
2022-12-03T02:03:20.238Z,100973.75
2022-12-03T02:05:50.703Z,100977.75
2022-12-03T02:08:30.843Z,100966.84
2022-12-03T02:11:07.420Z,100961.06
2022-12-03T02:13:38.275Z,100963.66
2022-12-03T02:16:09.880Z,100961.50
2022-12-03T02:18:40.811Z,100957.75
2022-12-03T02:21:26.878Z,100964.28
2022-12-03T02:24:55.494Z,100957.25
2022-12-03T02:27:26.525Z,100955.19
2022-12-03T02:29:57.172Z,100957.19
2022-12-03T02:32:28.053Z,100960.97
2022-12-03T02:34:58.625Z,100951.47
2022-12-03T02:37:34.055Z,100947.72
2022-12-03T02:40:08.542Z,100944.63
2022-12-03T02:42:43.225Z,100927.00
2022-12-03T02:45:20.037Z,100929.69
2022-12-03T02:48:08.643Z,100913.75
2022-12-03T02:50:42.175Z,100911.31
2022-12-03T02:53:19.278Z,100895.09
2022-12-03T02:55:51.062Z,100889.69
2022-12-03T02:58:23.576Z,100879.09
2022-12-03T03:00:56.080Z,100883.28
2022-12-03T03:03:29.969Z,100882.06
2022-12-03T03:06:02.416Z,100871.47
2022-12-03T03:08:33.008Z,100866.97
2022-12-03T03:11:06.447Z,100867.38
2022-12-03T03:13:37.304Z,100862.44
2022-12-03T03:16:09.082Z,100857.25
2022-12-03T03:18:40.435Z,100865.78
2022-12-03T03:21:14.158Z,100863.31
2022-12-03T03:23:44.497Z,100850.41
2022-12-03T03:26:17.473Z,100855.22
2022-12-03T03:28:52.979Z,100849.63
2022-12-03T03:31:24.787Z,100845.03
2022-12-03T03:33:58.134Z,100847.16
2022-12-03T03:36:28.940Z,100847.78
2022-12-03T03:38:59.315Z,100834.25
2022-12-03T03:41:31.065Z,100825.72
2022-12-03T03:44:01.752Z,100828.22
2022-12-03T03:46:34.474Z,100829.25
2022-12-03T03:49:06.127Z,100827.56
2022-12-03T03:51:37.615Z,100825.25
2022-12-03T03:54:09.346Z,100830.03
2022-12-03T03:56:40.238Z,100808.00
2022-12-03T03:59:10.958Z,100806.78
2022-12-03T04:01:41.727Z,100800.97
2022-12-03T04:04:22.513Z,100788.94
2022-12-03T04:06:54.580Z,100775.63
2022-12-03T04:09:25.468Z,100779.41
2022-12-03T04:12:13.795Z,100763.66
2022-12-03T04:14:44.346Z,100767.84
2022-12-03T04:17:15.160Z,100760.34
2022-12-03T04:19:45.755Z,100755.97
2022-12-03T04:22:34.729Z,100750.13
2022-12-03T04:25:26.639Z,100748.25
2022-12-03T04:28:15.803Z,100749.09
2022-12-03T04:30:46.412Z,100744.94
2022-12-03T04:33:36.013Z,100726.38
2022-12-03T04:36:06.863Z,100732.59
2022-12-03T04:38:38.411Z,100734.50
2022-12-03T04:41:09.244Z,100725.75
2022-12-03T04:43:59.343Z,100719.50
2022-12-03T04:46:30.224Z,100723.25
2022-12-03T04:49:01.143Z,100705.75
2022-12-03T04:51:31.439Z,100702.81
2022-12-03T04:54:02.130Z,100700.31
2022-12-03T04:56:32.767Z,100695.09
2022-12-03T04:59:03.631Z,100686.97
2022-12-03T05:01:34.860Z,100688.00
2022-12-03T05:04:06.199Z,100685.31
2022-12-03T05:06:37.863Z,100670.72
2022-12-03T05:09:09.720Z,100674.06
2022-12-03T05:11:41.169Z,100666.13
2022-12-03T05:14:12.449Z,100664.03
2022-12-03T05:16:42.883Z,100658.56
2022-12-03T05:19:15.461Z,100648.94
2022-12-03T05:21:46.093Z,100645.19
2022-12-03T05:24:17.729Z,100631.38
2022-12-03T05:26:51.533Z,100628.22
2022-12-03T05:29:22.033Z,100632.63
2022-12-03T05:31:53.039Z,100618.41
2022-12-03T05:34:23.593Z,100617.97
2022-12-03T05:36:54.454Z,100615.00
2022-12-03T05:39:24.714Z,100617.91
2022-12-03T05:42:13.585Z,100611.59
2022-12-03T05:44:43.854Z,100612.19
2022-12-03T05:47:14.499Z,100604.44
2022-12-03T05:49:44.766Z,100593.09
2022-12-03T05:52:15.781Z,100608.34
2022-12-03T05:54:46.411Z,100605.63
2022-12-03T05:57:16.591Z,100608.91
2022-12-03T05:59:47.773Z,100605.09
2022-12-03T06:02:18.567Z,100610.47
2022-12-03T06:04:49.734Z,100607.69
2022-12-03T06:07:22.974Z,100593.91
2022-12-03T06:09:53.556Z,100596.53
2022-12-03T06:12:24.140Z,100598.13
2022-12-03T06:14:58.472Z,100590.50
2022-12-03T06:17:29.101Z,100590.91
2022-12-03T06:19:59.825Z,100572.41
2022-12-03T06:22:30.208Z,100567.72
2022-12-03T06:25:05.070Z,100571.91
2022-12-03T06:27:40.033Z,100562.44
2022-12-03T06:30:14.936Z,100568.28
2022-12-03T06:32:45.896Z,100561.78
2022-12-03T06:35:16.995Z,100563.88
2022-12-03T06:37:50.390Z,100560.72
2022-12-03T06:40:21.382Z,100554.56
2022-12-03T06:42:55.244Z,100561.25
2022-12-03T06:45:25.615Z,100558.69
2022-12-03T06:47:56.155Z,100557.94
2022-12-03T06:50:26.998Z,100552.50
2022-12-03T06:52:57.568Z,100557.59
2022-12-03T06:55:28.129Z,100553.97
2022-12-03T06:57:58.950Z,100548.69
2022-12-03T07:00:29.995Z,100558.22
2022-12-03T07:03:03.541Z,100545.09
2022-12-03T07:05:34.184Z,100542.81
2022-12-03T07:08:05.191Z,100548.06
2022-12-03T07:10:35.753Z,100553.16
2022-12-03T07:13:06.538Z,100543.13
2022-12-03T07:15:36.807Z,100549.69
2022-12-03T07:18:07.448Z,100562.50
2022-12-03T07:20:38.459Z,100568.56
2022-12-03T07:23:09.333Z,100560.25
2022-12-03T07:25:39.899Z,100558.88
2022-12-03T07:28:10.286Z,100558.47
2022-12-03T07:30:40.540Z,100560.56
2022-12-03T07:33:11.321Z,100558.72
2022-12-03T07:35:41.672Z,100564.81
2022-12-03T07:38:12.557Z,100564.25
2022-12-03T07:40:44.016Z,100571.16
2022-12-03T07:43:14.656Z,100566.16
2022-12-03T07:45:45.256Z,100572.47
2022-12-03T07:48:19.738Z,100570.78
2022-12-03T07:50:50.255Z,100578.75
2022-12-03T07:53:20.845Z,100582.13
2022-12-03T07:55:51.364Z,100582.13
2022-12-03T07:58:21.891Z,100590.06
2022-12-03T08:00:52.318Z,100586.13
2022-12-03T08:03:23.279Z,100586.78
2022-12-03T08:05:54.171Z,100584.75
2022-12-03T08:08:25.001Z,100588.50
2022-12-03T08:10:55.277Z,100588.91
2022-12-03T08:13:25.983Z,100593.13
2022-12-03T08:16:04.709Z,100595.63
2022-12-03T08:18:35.246Z,100597.28
2022-12-03T08:21:10.642Z,100605.66
2022-12-03T08:23:41.876Z,100604.00
2022-12-03T08:26:34.411Z,100606.09
2022-12-03T08:29:13.295Z,100606.50
2022-12-03T08:31:50.072Z,100609.81
2022-12-03T08:34:22.965Z,100610.66
2022-12-03T08:37:23.694Z,100619.63
2022-12-03T08:39:56.398Z,100635.28
2022-12-03T08:42:43.163Z,100626.72
2022-12-03T08:45:25.999Z,100629.22
2022-12-03T08:47:59.974Z,100626.75
2022-12-03T08:50:37.992Z,100629.88
2022-12-03T08:53:31.407Z,100631.53
2022-12-03T08:56:05.109Z,100641.13
2022-12-03T08:58:40.304Z,100641.75
2022-12-03T09:01:14.430Z,100657.81
2022-12-03T09:03:56.477Z,100667.59
2022-12-03T09:06:27.318Z,100665.28
2022-12-03T09:09:01.132Z,100675.09
2022-12-03T09:11:34.353Z,100674.25
2022-12-03T09:14:05.552Z,100683.22
2022-12-03T09:16:36.495Z,100685.94
2022-12-03T09:19:07.536Z,100686.53
2022-12-03T09:21:38.398Z,100698.59
2022-12-03T09:24:08.909Z,100697.56
2022-12-03T09:26:39.764Z,100702.75
2022-12-03T09:29:12.480Z,100704.03
2022-12-03T09:31:43.449Z,100704.63
2022-12-03T09:34:13.877Z,100704.84
2022-12-03T09:36:44.362Z,100718.56
2022-12-03T09:39:15.330Z,100709.81
2022-12-03T09:41:46.405Z,100716.69
2022-12-03T09:44:18.242Z,100718.34
2022-12-03T09:46:49.601Z,100723.13
2022-12-03T09:49:21.126Z,100721.88
2022-12-03T09:51:51.754Z,100715.19
2022-12-03T09:54:25.224Z,100725.22
2022-12-03T09:57:00.640Z,100722.69
2022-12-03T09:59:35.740Z,100724.31
2022-12-03T10:02:21.228Z,100732.66
2022-12-03T10:04:52.219Z,100743.06
2022-12-03T10:07:24.967Z,100743.06
2022-12-03T10:09:55.928Z,100744.31
2022-12-03T10:12:26.874Z,100750.31
2022-12-03T10:14:57.696Z,100753.88
2022-12-03T10:17:29.837Z,100758.06
2022-12-03T10:20:00.779Z,100756.34
2022-12-03T10:22:37.855Z,100755.69
2022-12-03T10:25:13.450Z,100758.81
2022-12-03T10:27:44.335Z,100754.63
2022-12-03T10:30:24.270Z,100767.34
2022-12-03T10:32:55.043Z,100765.84
2022-12-03T10:35:28.586Z,100773.78
2022-12-03T10:38:01.960Z,100773.78
2022-12-03T10:40:37.829Z,100777.91
2022-12-03T10:43:20.674Z,100771.88
2022-12-03T10:46:12.945Z,100777.06
2022-12-03T10:48:43.847Z,100777.03
2022-12-03T10:51:24.034Z,100777.84
2022-12-03T10:53:55.389Z,100790.50
2022-12-03T10:56:28.311Z,100788.66
2022-12-03T10:58:59.626Z,100795.50
2022-12-03T11:01:32.885Z,100799.47
2022-12-03T11:04:06.303Z,100812.75
2022-12-03T11:06:37.401Z,100821.91
2022-12-03T11:09:18.400Z,100816.09
2022-12-03T11:11:51.397Z,100825.66
2022-12-03T11:14:54.921Z,100831.06
2022-12-03T11:17:46.905Z,100820.25
2022-12-03T11:20:26.782Z,100819.78
2022-12-03T11:22:58.865Z,100828.09
2022-12-03T11:25:29.705Z,100835.59
2022-12-03T11:28:15.136Z,100829.72
2022-12-03T11:30:54.562Z,100842.13
2022-12-03T11:33:36.494Z,100850.88
2022-12-03T11:36:07.292Z,100846.25
2022-12-03T11:38:52.420Z,100861.47
2022-12-03T11:41:25.552Z,100858.94
2022-12-03T11:43:58.745Z,100861.19
2022-12-03T11:46:42.524Z,100864.94
2022-12-03T11:49:36.395Z,100882.44
2022-12-03T11:52:33.926Z,100891.97
2022-12-03T11:55:19.124Z,100890.69
2022-12-03T11:57:49.608Z,100881.94
2022-12-03T12:00:23.074Z,100894.88
2022-12-03T12:02:56.082Z,100887.06
2022-12-03T12:05:37.805Z,100890.06
2022-12-03T12:08:20.016Z,100887.06
2022-12-03T12:10:51.192Z,100887.22
2022-12-03T12:13:36.776Z,100902.66
2022-12-03T12:16:08.797Z,100899.97
2022-12-03T12:18:54.698Z,100893.94
2022-12-03T12:21:50.938Z,100900.47
2022-12-03T12:24:30.917Z,100898.97
2022-12-03T12:27:11.196Z,100902.06
2022-12-03T12:29:43.132Z,100896.47
2022-12-03T12:32:18.887Z,100901.88
2022-12-03T12:34:51.695Z,100906.00
2022-12-03T12:37:33.870Z,100904.97
2022-12-03T12:40:18.618Z,100906.44
2022-12-03T12:43:21.880Z,100907.47
2022-12-03T12:46:13.683Z,100913.28
2022-12-03T12:48:55.237Z,100903.31
2022-12-03T12:51:28.977Z,100915.16
2022-12-03T12:53:59.669Z,100919.53
2022-12-03T12:56:33.772Z,100918.91
2022-12-03T12:59:21.654Z,100928.03
2022-12-03T13:01:53.463Z,100924.31
2022-12-03T13:04:28.122Z,100917.22
2022-12-03T13:06:58.832Z,100914.31
2022-12-03T13:09:29.315Z,100918.91
2022-12-03T13:12:01.753Z,100913.88
2022-12-03T13:14:37.894Z,100911.81
2022-12-03T13:17:17.623Z,100922.16
2022-12-03T13:19:53.898Z,100924.69
2022-12-03T13:22:29.447Z,100920.09
2022-12-03T13:25:04.053Z,100936.34
2022-12-03T13:27:34.319Z,100942.13
2022-12-03T13:30:25.024Z,100950.50
2022-12-03T13:32:56.103Z,100960.25
2022-12-03T13:35:36.275Z,100966.69
2022-12-03T13:38:18.309Z,100968.75
2022-12-03T13:41:30.182Z,100980.78
2022-12-03T13:44:01.783Z,100980.34
2022-12-03T13:46:37.558Z,100984.06
2022-12-03T13:49:22.189Z,100983.69
2022-12-03T13:51:54.047Z,100991.81
2022-12-03T13:54:27.374Z,100986.41
2022-12-03T13:56:57.892Z,100984.06
2022-12-03T13:59:29.664Z,100973.63
2022-12-03T14:02:00.910Z,100970.69
2022-12-03T14:04:31.358Z,100959.44
2022-12-03T14:07:02.178Z,100966.06
2022-12-03T14:09:32.474Z,100962.31
2022-12-03T14:12:21.262Z,100972.31
2022-12-03T14:14:53.096Z,100974.38
2022-12-03T14:17:32.018Z,100968.13
2022-12-03T14:20:10.037Z,100970.81
2022-12-03T14:22:48.592Z,100969.34
2022-12-03T14:25:30.630Z,100976.81
2022-12-03T14:28:10.949Z,100982.63
2022-12-03T14:30:41.197Z,100990.06
2022-12-03T14:35:58.466Z,100991.31
2022-12-03T14:38:31.453Z,100987.97
2022-12-03T14:41:01.943Z,100991.50
2022-12-03T14:43:35.625Z,100986.72
2022-12-03T14:46:15.983Z,100979.59
2022-12-03T14:48:56.179Z,100971.66
2022-12-03T14:51:28.145Z,100966.25
2022-12-03T14:53:58.971Z,100961.22
2022-12-03T14:56:36.156Z,100960.56
2022-12-03T14:59:08.395Z,100954.53
2022-12-03T15:01:40.117Z,100957.16
2022-12-03T15:04:26.709Z,100946.53
2022-12-03T15:06:57.295Z,100944.47
2022-12-03T15:09:30.576Z,100947.56
2022-12-03T15:12:17.331Z,100945.13
2022-12-03T15:14:54.202Z,100948.59
2022-12-03T15:17:31.758Z,100943.81
2022-12-03T15:20:03.332Z,100944.84
2022-12-03T15:22:33.899Z,100954.00
2022-12-03T15:25:04.387Z,100947.94
2022-12-03T15:27:35.339Z,100948.16
2022-12-03T15:30:07.113Z,100946.47
2022-12-03T15:32:42.176Z,100947.84
2022-12-03T15:35:44.304Z,100946.34
2022-12-03T15:38:23.102Z,100945.31
2022-12-03T15:40:57.750Z,100943.84
2022-12-03T15:43:28.975Z,100942.81
2022-12-03T15:45:59.866Z,100939.47
2022-12-03T15:48:30.800Z,100940.66
2022-12-03T15:51:01.307Z,100941.69
2022-12-03T15:53:31.751Z,100940.03
2022-12-03T15:56:03.494Z,100937.53
2022-12-03T15:58:34.306Z,100945.81
2022-12-03T16:01:05.150Z,100944.59
2022-12-03T16:03:41.838Z,100956.16
2022-12-03T16:06:35.301Z,100949.16
2022-12-03T16:09:40.162Z,100957.47
2022-12-03T16:12:10.681Z,100954.94
2022-12-03T16:14:46.204Z,100962.38
2022-12-03T16:20:09.776Z,100955.31
2022-12-03T16:23:16.068Z,100962.38
2022-12-03T16:26:00.682Z,100951.97
2022-12-03T16:28:38.143Z,100959.41
2022-12-03T16:31:08.407Z,100954.41
2022-12-03T16:33:43.299Z,100958.78
2022-12-03T16:36:36.725Z,100951.50
2022-12-03T16:39:56.328Z,100946.09
2022-12-03T16:42:28.188Z,100932.97
2022-12-03T16:45:42.741Z,100935.88
2022-12-03T16:48:13.950Z,100931.59
2022-12-03T16:50:44.261Z,100927.13
2022-12-03T16:53:15.387Z,100928.72
2022-12-03T16:55:54.629Z,100924.31
2022-12-03T16:58:25.522Z,100927.13
2022-12-03T17:00:58.636Z,100923.19
2022-12-03T17:03:33.855Z,100925.03
2022-12-03T17:06:05.339Z,100917.97
2022-12-03T17:08:35.890Z,100907.47
2022-12-03T17:11:09.111Z,100903.75
2022-12-03T17:13:39.653Z,100906.06
2022-12-03T17:16:10.745Z,100902.44
2022-12-03T17:18:41.453Z,100906.16
2022-12-03T17:21:12.009Z,100899.91
2022-12-03T17:23:42.242Z,100890.34
2022-12-03T17:26:12.878Z,100893.03
2022-12-03T17:28:43.225Z,100890.34
2022-12-03T17:31:14.524Z,100897.78
2022-12-03T17:33:44.831Z,100896.09
2022-12-03T17:36:17.037Z,100903.38
2022-12-03T17:38:47.296Z,100894.25
2022-12-03T17:41:17.947Z,100890.06
2022-12-03T17:43:49.152Z,100885.69
2022-12-03T17:46:19.702Z,100877.66
2022-12-03T17:48:50.380Z,100876.34
2022-12-03T17:51:22.040Z,100883.78
2022-12-03T17:53:52.697Z,100874.19
2022-12-03T17:56:26.518Z,100860.50
2022-12-03T17:58:58.078Z,100871.31
2022-12-03T18:01:28.770Z,100873.34
2022-12-03T18:04:00.006Z,100878.75
2022-12-03T18:06:30.282Z,100891.41
2022-12-03T18:09:01.596Z,100893.25
2022-12-03T18:11:32.684Z,100892.59
2022-12-03T18:14:03.378Z,100889.25
2022-12-03T18:16:33.853Z,100897.34
2022-12-03T18:19:06.582Z,100898.19
2022-12-03T18:21:37.285Z,100903.09
2022-12-03T18:24:08.137Z,100897.34
2022-12-03T18:26:38.915Z,100896.59
2022-12-03T18:29:11.726Z,100900.31
2022-12-03T18:31:42.350Z,100898.63
2022-12-03T18:34:12.979Z,100903.38
2022-12-03T18:36:43.880Z,100898.19
2022-12-03T18:39:27.809Z,100891.13
2022-12-03T18:41:59.188Z,100881.50
2022-12-03T18:44:30.191Z,100883.56
2022-12-03T18:47:01.959Z,100887.94
2022-12-03T18:49:32.421Z,100883.56
2022-12-03T18:52:03.157Z,100873.13
2022-12-03T18:54:33.700Z,100874.81
2022-12-03T18:57:04.085Z,100874.81
2022-12-03T18:59:34.538Z,100870.44
2022-12-03T19:02:05.858Z,100883.25
2022-12-03T19:04:36.071Z,100873.88
2022-12-03T19:07:06.659Z,100877.94
2022-12-03T19:09:37.192Z,100880.47
2022-12-03T19:12:14.367Z,100875.25
2022-12-03T19:14:45.960Z,100888.72
2022-12-03T19:17:16.421Z,100877.94
2022-12-03T19:19:49.191Z,100881.28
2022-12-03T19:22:19.917Z,100875.09
2022-12-03T19:24:50.239Z,100878.78
2022-12-03T19:27:20.606Z,100881.66
2022-12-03T19:29:52.249Z,100887.41
2022-12-03T19:32:22.698Z,100884.06
2022-12-03T19:34:53.279Z,100882.75
2022-12-03T19:37:23.930Z,100878.00
2022-12-03T19:39:55.012Z,100875.31
2022-12-03T19:42:25.524Z,100871.97
2022-12-03T19:44:55.969Z,100877.91
2022-12-03T19:47:26.634Z,100870.28
2022-12-03T19:49:57.319Z,100873.53
2022-12-03T19:52:28.927Z,100878.94
2022-12-03T19:54:59.473Z,100878.09
2022-12-03T19:57:30.044Z,100883.50
2022-12-03T20:00:00.844Z,100884.69
2022-12-03T20:02:32.286Z,100888.03
2022-12-03T20:05:02.674Z,100881.16
2022-12-03T20:07:32.942Z,100878.47
2022-12-03T20:10:04.065Z,100882.50
2022-12-03T20:12:34.767Z,100881.66
2022-12-03T20:15:06.803Z,100879.16
2022-12-03T20:17:40.633Z,100882.50
2022-12-03T20:20:11.557Z,100882.88
2022-12-03T20:22:44.970Z,100884.91
2022-12-03T20:25:16.006Z,100884.53
2022-12-03T20:27:49.312Z,100884.91
2022-12-03T20:30:20.253Z,100886.75
2022-12-03T20:32:53.056Z,100889.94
2022-12-03T20:35:24.144Z,100885.25
2022-12-03T20:37:54.746Z,100894.00
2022-12-03T20:40:27.432Z,100891.31
2022-12-03T20:42:57.847Z,100895.69
2022-12-03T20:45:29.371Z,100898.25
2022-12-03T20:47:59.731Z,100899.25
2022-12-03T20:50:30.559Z,100900.47
2022-12-03T20:53:23.319Z,100911.41
2022-12-03T20:56:01.254Z,100902.16
2022-12-03T20:58:32.461Z,100898.50
2022-12-03T21:01:16.214Z,100895.59
2022-12-03T21:03:47.928Z,100896.81
2022-12-03T21:06:19.643Z,100894.59
2022-12-03T21:08:50.459Z,100901.19
2022-12-03T21:11:26.698Z,100897.84
2022-12-03T21:13:57.761Z,100906.56
2022-12-03T21:19:23.452Z,100914.00
2022-12-03T21:21:54.759Z,100917.72
2022-12-03T21:24:25.230Z,100931.34
2022-12-03T21:26:56.159Z,100934.03
2022-12-03T21:29:27.208Z,100925.13
2022-12-03T21:31:57.784Z,100935.25
2022-12-03T21:34:35.522Z,100945.00
2022-12-03T21:37:06.709Z,100946.69
2022-12-03T21:39:37.498Z,100949.06
2022-12-03T21:42:19.243Z,100953.13
2022-12-03T21:44:59.577Z,100954.81
2022-12-03T21:47:36.385Z,100959.34
2022-12-03T21:50:09.417Z,100966.25
2022-12-03T21:52:40.301Z,100974.16
2022-12-03T21:55:11.320Z,100969.63
2022-12-03T21:57:43.742Z,100981.44
2022-12-03T22:00:17.591Z,100976.69
2022-12-03T22:02:48.311Z,100979.22
2022-12-03T22:05:18.937Z,100983.56
2022-12-03T22:07:49.639Z,100985.44
2022-12-03T22:10:20.046Z,100989.81
2022-12-03T22:12:50.341Z,100989.97
2022-12-03T22:15:20.859Z,100993.69
2022-12-03T22:17:51.523Z,100996.38
2022-12-03T22:20:22.353Z,101009.03
2022-12-03T22:22:53.390Z,101016.44
2022-12-03T22:25:23.972Z,101023.84
2022-12-03T22:27:54.455Z,101029.06
2022-12-03T22:30:24.981Z,101033.47
2022-12-03T22:32:58.305Z,101037.34
2022-12-03T22:35:29.434Z,101042.06
2022-12-03T22:38:00.006Z,101049.81
2022-12-03T22:40:30.992Z,101065.97
2022-12-03T22:43:01.902Z,101074.19
2022-12-03T22:45:32.450Z,101083.81
2022-12-03T22:48:04.062Z,101087.84
2022-12-03T22:50:34.586Z,101102.31
2022-12-03T22:53:05.175Z,101106.03
2022-12-03T22:55:35.820Z,101105.84
2022-12-03T22:58:06.640Z,101103.66
2022-12-03T23:00:39.504Z,101106.69
2022-12-03T23:03:10.626Z,101110.72
2022-12-03T23:05:42.707Z,101115.25
2022-12-03T23:08:15.908Z,101114.25
2022-12-03T23:10:48.633Z,101116.47
2022-12-03T23:13:20.167Z,101119.47
2022-12-03T23:15:54.134Z,101119.81
2022-12-03T23:18:24.780Z,101118.16
2022-12-03T23:20:57.484Z,101124.69
2022-12-03T23:23:29.434Z,101127.91
2022-12-03T23:26:08.481Z,101119.81
2022-12-03T23:28:41.995Z,101125.38
2022-12-03T23:31:22.150Z,101127.56
2022-12-03T23:33:53.675Z,101135.97
2022-12-03T23:36:25.847Z,101141.03
2022-12-03T23:38:56.761Z,101147.91
2022-12-03T23:41:27.383Z,101145.41
2022-12-03T23:43:58.670Z,101147.09
2022-12-03T23:46:30.299Z,101154.16
2022-12-03T23:49:01.143Z,101145.41
2022-12-03T23:51:31.618Z,101139.69
2022-12-03T23:54:01.903Z,101147.78
2022-12-03T23:56:32.819Z,101151.28
2022-12-03T23:59:05.250Z,101160.38
